Time;durP1;ratioP1;P1;durP2;ratioP2;P2;SDS_P1;SDS_P2;PMS_P1;PMS_P2;Temp;Humidity;BMP_temperature;BMP_pressure;BME280_temperature;BME280_humidity;BME280_pressure;Samples;Min_cycle;Max_cycle;Signal;HPM_P1;HPM_P2
2021/05/30 00:02:15;;;;;;;3.90;1.90;;;13.30;67.80;;;;;;6187695;23;20059;-82
2021/05/30 00:04:41;;;;;;;3.43;2.07;;;13.20;67.60;;;;;;6189252;23;20088;-82
2021/05/30 00:07:10;;;;;;;3.97;2.30;;;13.30;67.70;;;;;;6188694;23;20004;-85
2021/05/30 00:09:38;;;;;;;2.97;2.00;;;13.30;67.60;;;;;;6187812;23;20001;-83
2021/05/30 00:12:05;;;;;;;3.23;1.97;;;13.30;67.40;;;;;;6214602;23;20004;-82
2021/05/30 00:14:31;;;;;;;3.67;2.37;;;13.30;67.40;;;;;;6188020;23;20337;-83
2021/05/30 00:16:57;;;;;;;6.10;2.00;;;13.30;67.40;;;;;;6187440;23;20004;-83
2021/05/30 00:19:23;;;;;;;4.20;2.37;;;13.20;67.30;;;;;;6187492;23;20009;-83
2021/05/30 00:21:48;;;;;;;3.20;2.20;;;13.20;67.50;;;;;;6188026;23;20012;-82
2021/05/30 00:24:14;;;;;;;5.73;2.73;;;13.10;67.70;;;;;;6187994;23;20012;-83
2021/05/30 00:26:40;;;;;;;4.17;2.00;;;13.00;67.70;;;;;;6214429;23;20016;-84
2021/05/30 00:29:06;;;;;;;4.23;3.40;;;12.90;67.70;;;;;;6188367;23;20035;-82
2021/05/30 00:31:32;;;;;;;6.90;4.17;;;12.80;67.90;;;;;;6187390;23;20001;-83
2021/05/30 00:33:59;;;;;;;9.97;5.37;;;12.80;67.90;;;;;;6187560;23;20004;-83
2021/05/30 00:36:24;;;;;;;8.80;5.80;;;12.70;68.10;;;;;;6187811;23;20439;-83
2021/05/30 00:38:50;;;;;;;9.13;5.17;;;12.70;68.30;;;;;;6188354;23;20062;-83
2021/05/30 00:41:16;;;;;;;4.57;3.40;;;12.70;68.30;;;;;;6187825;23;20300;-83
2021/05/30 00:43:53;;;;;;;5.00;3.30;;;12.70;68.30;;;;;;6187662;23;20001;-82
2021/05/30 00:46:19;;;;;;;3.57;3.27;;;12.60;68.20;;;;;;6215084;23;20102;-82
2021/05/30 00:48:45;;;;;;;5.23;2.53;;;12.60;68.10;;;;;;6187945;23;20005;-83
2021/05/30 00:51:11;;;;;;;2.60;2.03;;;12.60;68.00;;;;;;6214969;23;19997;-82
2021/05/30 00:53:38;;;;;;;2.40;1.90;;;12.60;67.70;;;;;;6187715;23;20011;-82
2021/05/30 00:56:07;;;;;;;4.77;2.30;;;12.60;67.80;;;;;;6187301;23;20007;-82
2021/05/30 00:58:33;;;;;;;4.93;2.67;;;12.50;67.90;;;;;;6187579;23;20092;-83
2021/05/30 01:00:59;;;;;;;2.43;2.10;;;12.50;67.80;;;;;;6187117;23;20008;-83
2021/05/30 01:03:25;;;;;;;2.77;2.30;;;12.50;67.70;;;;;;6188146;23;20011;-82
2021/05/30 01:05:51;;;;;;;3.70;2.20;;;12.50;67.90;;;;;;6188250;23;20001;-83
2021/05/30 01:08:25;;;;;;;2.63;1.83;;;12.40;67.80;;;;;;6187327;23;20013;-82
2021/05/30 01:10:53;;;;;;;2.70;2.30;;;12.40;67.80;;;;;;6187895;23;20035;-82
2021/05/30 01:13:20;;;;;;;4.37;2.50;;;12.40;67.90;;;;;;6187623;23;20027;-83
2021/05/30 01:15:47;;;;;;;4.67;2.27;;;12.40;68.10;;;;;;6187654;23;20032;-83
2021/05/30 01:18:16;;;;;;;2.67;2.27;;;12.40;68.10;;;;;;6187330;23;20051;-82
2021/05/30 01:20:42;;;;;;;2.57;2.10;;;12.40;67.90;;;;;;6187448;23;20005;-83
2021/05/30 01:23:11;;;;;;;2.60;1.93;;;12.40;68.00;;;;;;6186984;23;20013;-84
2021/05/30 01:25:38;;;;;;;3.23;2.00;;;12.50;68.10;;;;;;6214555;23;20138;-82
2021/05/30 01:28:05;;;;;;;6.90;2.30;;;12.40;68.00;;;;;;6183359;23;20011;-83
2021/05/30 01:30:32;;;;;;;2.53;2.30;;;12.50;68.10;;;;;;6186002;23;20004;-84
2021/05/30 01:32:59;;;;;;;3.20;2.43;;;12.40;68.10;;;;;;6187788;23;20005;-82
2021/05/30 01:35:24;;;;;;;5.17;3.07;;;12.50;68.00;;;;;;6187637;23;19997;-83
2021/05/30 01:37:51;;;;;;;5.30;2.50;;;12.50;68.00;;;;;;6186977;23;20015;-82
2021/05/30 01:40:21;;;;;;;4.50;2.20;;;12.40;68.20;;;;;;6187199;23;20005;-82
2021/05/30 01:42:49;;;;;;;6.00;2.30;;;12.40;68.30;;;;;;6187472;23;20001;-84
2021/05/30 01:45:16;;;;;;;4.50;2.30;;;12.30;68.20;;;;;;6182618;23;20032;-82
2021/05/30 01:47:43;;;;;;;3.40;2.50;;;12.30;68.30;;;;;;6182010;23;20004;-83
2021/05/30 01:50:12;;;;;;;2.73;2.00;;;12.20;68.50;;;;;;6181884;23;20446;-82
2021/05/30 01:52:39;;;;;;;4.43;2.50;;;12.20;68.70;;;;;;6183061;23;20092;-82
2021/05/30 01:55:06;;;;;;;2.20;2.00;;;12.20;68.50;;;;;;6181776;23;20023;-82
2021/05/30 01:57:42;;;;;;;4.20;2.40;;;12.10;68.50;;;;;;6182243;23;20005;-82
2021/05/30 02:00:09;;;;;;;5.37;2.33;;;12.10;68.70;;;;;;6184357;23;20009;-83
2021/05/30 02:02:35;;;;;;;2.80;2.00;;;12.10;68.60;;;;;;6184045;23;20001;-82
2021/05/30 02:05:01;;;;;;;3.50;2.50;;;12.10;68.50;;;;;;6184398;23;20439;-82
2021/05/30 02:07:27;;;;;;;3.40;2.33;;;12.00;68.40;;;;;;6182817;23;20012;-82
2021/05/30 02:09:54;;;;;;;2.83;2.10;;;11.90;68.80;;;;;;6182517;23;20016;-82
2021/05/30 02:12:21;;;;;;;5.57;2.57;;;11.90;69.00;;;;;;6181920;23;20439;-82
2021/05/30 02:14:47;;;;;;;7.10;2.80;;;11.90;68.90;;;;;;6181935;23;20360;-82
2021/05/30 02:17:13;;;;;;;5.00;2.50;;;11.90;69.10;;;;;;6182157;23;20032;-83
2021/05/30 02:19:39;;;;;;;2.60;2.20;;;11.90;69.30;;;;;;6181970;23;20104;-83
2021/05/30 02:22:05;;;;;;;3.27;2.60;;;11.90;69.30;;;;;;6182695;23;20011;-82
2021/05/30 02:24:30;;;;;;;6.40;3.10;;;12.00;69.30;;;;;;6181695;23;20004;-84
2021/05/30 02:26:56;;;;;;;4.07;2.40;;;12.00;69.20;;;;;;6182475;23;20005;-83
2021/05/30 02:29:39;;;;;;;3.43;2.40;;;12.00;69.00;;;;;;6182066;23;20424;-82
2021/05/30 02:32:07;;;;;;;3.88;2.45;;;12.00;69.10;;;;;;6182316;23;20028;-82
2021/05/30 02:34:33;;;;;;;5.10;2.30;;;12.00;68.70;;;;;;6181227;23;19997;-82
2021/05/30 02:37:00;;;;;;;4.80;1.90;;;11.90;68.70;;;;;;6182215;23;20015;-82
2021/05/30 02:39:26;;;;;;;3.83;2.40;;;11.80;68.80;;;;;;6180881;23;20041;-83
2021/05/30 02:41:51;;;;;;;3.57;2.60;;;11.70;69.10;;;;;;6181695;23;20005;-82
2021/05/30 02:44:17;;;;;;;4.33;2.10;;;11.60;69.40;;;;;;6184027;23;20075;-83
2021/05/30 02:46:43;;;;;;;2.97;2.03;;;11.60;69.60;;;;;;6187083;23;20028;-82
2021/05/30 02:49:09;;;;;;;3.97;2.00;;;11.60;69.40;;;;;;6186933;23;20011;-83
2021/05/30 02:51:35;;;;;;;4.93;2.17;;;11.60;69.40;;;;;;6213561;23;19997;-83
2021/05/30 02:54:01;;;;;;;4.73;2.10;;;11.70;69.20;;;;;;6186725;23;20088;-82
2021/05/30 02:56:28;;;;;;;4.97;2.30;;;11.60;69.10;;;;;;6190563;23;20000;-90
2021/05/30 02:58:54;;;;;;;2.73;2.23;;;11.50;69.10;;;;;;6191184;23;20062;-91
2021/05/30 03:01:20;;;;;;;4.87;2.30;;;11.50;69.50;;;;;;6191877;23;20005;-90
2021/05/30 03:03:47;;;;;;;2.20;2.00;;;11.50;69.50;;;;;;6191682;23;20015;-89
2021/05/30 03:06:13;;;;;;;2.67;2.20;;;11.50;69.40;;;;;;6192658;23;20008;-87
2021/05/30 03:08:40;;;;;;;3.60;1.97;;;11.50;69.50;;;;;;6193890;23;20043;-90
2021/05/30 03:11:06;;;;;;;2.50;1.80;;;11.60;69.30;;;;;;6196751;23;20431;-90
2021/05/30 03:13:32;;;;;;;3.07;1.67;;;11.50;69.10;;;;;;6196335;23;20000;-91
2021/05/30 03:15:58;;;;;;;3.63;1.70;;;11.50;69.10;;;;;;6221204;23;20052;-90
2021/05/30 03:18:24;;;;;;;3.47;1.70;;;11.40;69.00;;;;;;6191085;23;20506;-90
2021/05/30 03:20:50;;;;;;;2.53;1.50;;;11.50;69.00;;;;;;6191064;23;20034;-89
2021/05/30 03:23:16;;;;;;;2.27;1.30;;;11.40;69.00;;;;;;6191855;23;20000;-90
2021/05/30 03:25:42;;;;;;;3.10;1.67;;;11.40;68.90;;;;;;6217085;23;20007;-89
2021/05/30 03:28:08;;;;;;;4.73;1.60;;;11.40;68.70;;;;;;6188295;23;20005;-90
2021/05/30 03:30:34;;;;;;;2.43;1.57;;;11.40;68.80;;;;;;6189966;23;20005;-91
2021/05/30 03:33:00;;;;;;;6.20;1.70;;;11.40;68.80;;;;;;6191241;23;20009;-90
2021/05/30 03:35:26;;;;;;;3.83;1.60;;;11.40;68.80;;;;;;6191835;23;20029;-90
2021/05/30 03:37:52;;;;;;;3.00;2.20;;;11.40;68.70;;;;;;6218255;23;20079;-88
2021/05/30 03:40:37;;;;;;;3.47;2.10;;;11.40;68.70;;;;;;6190440;23;20016;-89
2021/05/30 03:43:03;;;;;;;2.00;1.80;;;11.40;68.70;;;;;;6191863;23;20087;-89
2021/05/30 03:45:29;;;;;;;2.87;1.60;;;11.40;68.50;;;;;;6185938;23;20096;-89
2021/05/30 03:47:55;;;;;;;4.13;1.80;;;11.50;68.50;;;;;;6186325;23;20093;-89
2021/05/30 03:50:21;;;;;;;3.93;1.93;;;11.60;68.10;;;;;;6186058;23;20001;-90
2021/05/30 03:52:47;;;;;;;4.93;1.77;;;11.60;67.90;;;;;;6186880;23;20383;-91
2021/05/30 03:55:14;;;;;;;2.40;1.57;;;11.60;67.90;;;;;;6186626;23;20052;-88
2021/05/30 03:57:39;;;;;;;3.27;1.70;;;11.60;67.70;;;;;;6185010;23;20054;-90
2021/05/30 04:00:12;;;;;;;2.20;1.80;;;11.60;67.70;;;;;;6184067;23;20024;-90
2021/05/30 04:02:38;;;;;;;2.63;1.80;;;11.60;67.90;;;;;;6185428;23;20020;-89
2021/05/30 04:05:05;;;;;;;4.17;1.77;;;11.60;68.00;;;;;;6185825;23;20001;-90
2021/05/30 04:07:33;;;;;;;3.27;2.00;;;11.60;67.90;;;;;;6185151;23;20015;-90
2021/05/30 04:10:06;;;;;;;5.97;2.13;;;11.60;67.90;;;;;;6186759;23;20001;-90
2021/05/30 04:12:50;;;;;;;2.97;2.00;;;11.50;68.10;;;;;;6184892;23;20001;-89
2021/05/30 04:15:17;;;;;;;5.37;2.23;;;11.50;68.30;;;;;;6185408;23;20005;-89
2021/05/30 04:17:43;;;;;;;2.00;1.70;;;11.40;68.50;;;;;;6186136;23;20097;-90
2021/05/30 04:20:12;;;;;;;3.53;1.90;;;11.40;68.60;;;;;;6185275;23;20064;-90
2021/05/30 04:22:39;;;;;;;2.70;1.93;;;11.40;68.70;;;;;;6186985;23;20001;-90
2021/05/30 04:25:06;;;;;;;2.70;1.80;;;11.40;68.90;;;;;;6185206;23;20001;-89
2021/05/30 04:27:32;;;;;;;5.10;2.37;;;11.40;68.90;;;;;;6185752;23;20004;-90
2021/05/30 04:29:59;;;;;;;3.37;2.70;;;11.40;68.80;;;;;;6185997;23;20020;-90
2021/05/30 04:32:25;;;;;;;7.83;4.10;;;11.50;68.70;;;;;;6185052;23;20016;-90
2021/05/30 04:34:51;;;;;;;7.13;4.10;;;11.60;68.70;;;;;;6185072;23;20025;-90
2021/05/30 04:37:18;;;;;;;5.43;3.97;;;11.60;68.60;;;;;;6184831;23;20020;-90
2021/05/30 04:39:44;;;;;;;5.57;3.53;;;11.60;68.90;;;;;;6184282;23;20012;-89
2021/05/30 04:42:10;;;;;;;5.50;3.40;;;11.60;69.00;;;;;;6185009;23;20013;-90
2021/05/30 04:44:35;;;;;;;3.73;2.77;;;11.50;69.10;;;;;;6192669;23;20012;-91
2021/05/30 04:47:01;;;;;;;4.00;2.73;;;11.50;69.20;;;;;;6190591;23;20047;-90
2021/05/30 04:49:27;;;;;;;6.20;2.80;;;11.50;69.00;;;;;;6216420;23;20094;-90
2021/05/30 04:51:53;;;;;;;5.00;2.80;;;11.40;69.10;;;;;;6216940;23;20048;-90
2021/05/30 04:54:19;;;;;;;4.10;2.63;;;11.40;69.20;;;;;;6190369;23;20030;-89
2021/05/30 04:56:45;;;;;;;4.73;2.60;;;11.50;69.30;;;;;;6189792;23;20001;-90
2021/05/30 04:59:10;;;;;;;6.37;2.90;;;11.40;69.40;;;;;;6216262;23;20390;-88
2021/05/30 05:01:36;;;;;;;6.57;3.23;;;11.40;69.60;;;;;;6189575;23;20600;-90
2021/05/30 05:04:02;;;;;;;5.37;2.80;;;11.50;69.70;;;;;;6189724;23;20091;-90
2021/05/30 05:06:28;;;;;;;4.63;2.87;;;11.50;69.70;;;;;;6190356;23;20143;-90
2021/05/30 05:08:54;;;;;;;6.33;3.07;;;11.50;69.60;;;;;;6190391;23;20562;-90
2021/05/30 05:11:20;;;;;;;4.67;3.77;;;11.60;69.60;;;;;;6189609;23;20028;-90
2021/05/30 05:13:46;;;;;;;4.90;3.33;;;11.50;69.50;;;;;;6189658;23;20092;-91
2021/05/30 05:16:12;;;;;;;6.97;3.13;;;11.50;69.50;;;;;;6188859;23;20009;-90
2021/05/30 05:18:37;;;;;;;5.47;2.57;;;11.40;69.50;;;;;;6214706;23;20066;-90
2021/05/30 05:21:04;;;;;;;5.23;3.57;;;11.40;69.70;;;;;;6215439;23;20001;-90
2021/05/30 05:23:30;;;;;;;3.57;3.17;;;11.40;69.70;;;;;;6188810;23;20004;-90
2021/05/30 05:26:01;;;;;;;4.33;2.47;;;11.50;69.60;;;;;;6189232;23;20445;-91
2021/05/30 05:28:27;;;;;;;4.10;2.57;;;11.50;69.40;;;;;;6186641;23;20334;-90
2021/05/30 05:30:53;;;;;;;12.10;5.07;;;11.60;69.30;;;;;;6186216;23;20011;-90
2021/05/30 05:33:18;;;;;;;4.63;3.40;;;11.60;69.10;;;;;;6187922;23;20598;-89
2021/05/30 05:35:44;;;;;;;7.43;3.60;;;11.70;69.10;;;;;;6188781;23;20050;-91
2021/05/30 05:38:10;;;;;;;4.47;2.87;;;11.70;69.30;;;;;;6189310;23;20009;-90
2021/05/30 05:40:36;;;;;;;4.67;3.30;;;11.80;69.50;;;;;;6189812;23;20422;-90
2021/05/30 05:43:07;;;;;;;5.10;2.93;;;11.80;69.50;;;;;;6188866;23;20015;-91
2021/05/30 05:45:33;;;;;;;6.13;2.60;;;11.90;69.40;;;;;;6188609;23;20017;-90
2021/05/30 05:47:59;;;;;;;6.70;2.87;;;12.00;69.10;;;;;;6188095;23;20015;-91
2021/05/30 05:50:26;;;;;;;6.50;3.07;;;12.10;69.20;;;;;;6187428;23;20001;-91
2021/05/30 05:52:52;;;;;;;5.07;2.73;;;12.20;69.00;;;;;;6188106;23;20091;-90
2021/05/30 05:55:19;;;;;;;3.53;2.80;;;12.20;68.80;;;;;;6187571;23;20055;-90
2021/05/30 05:57:48;;;;;;;3.33;2.30;;;12.20;68.60;;;;;;6188022;23;20011;-90
2021/05/30 06:00:16;;;;;;;3.73;2.70;;;12.20;68.30;;;;;;6187019;23;20059;-89
2021/05/30 06:02:45;;;;;;;5.80;3.20;;;12.20;68.40;;;;;;6188028;23;20018;-91
2021/05/30 06:05:13;;;;;;;8.63;3.70;;;12.30;68.50;;;;;;6188821;23;20005;-91
2021/05/30 06:07:39;;;;;;;7.53;3.70;;;12.30;68.50;;;;;;6189108;23;20015;-90
2021/05/30 06:10:05;;;;;;;6.87;3.23;;;12.30;68.40;;;;;;6188136;23;20447;-91
2021/05/30 06:12:31;;;;;;;22.23;4.53;;;12.30;68.50;;;;;;6188176;23;20283;-91
2021/05/30 06:14:57;;;;;;;10.97;4.07;;;12.30;68.50;;;;;;6188239;23;20011;-90
2021/05/30 06:17:24;;;;;;;17.83;12.33;;;12.40;68.50;;;;;;6189478;23;20009;-90
2021/05/30 06:19:50;;;;;;;15.70;12.27;;;12.40;68.30;;;;;;6188885;23;20005;-90
2021/05/30 06:22:18;;;;;;;18.13;12.30;;;12.40;68.00;;;;;;6188871;23;20028;-89
2021/05/30 06:24:45;;;;;;;13.73;9.67;;;12.50;68.00;;;;;;6188634;23;20856;-90
2021/05/30 06:27:11;;;;;;;21.00;15.63;;;12.50;67.90;;;;;;6188603;23;20408;-91
2021/05/30 06:29:37;;;;;;;19.63;14.10;;;12.50;67.80;;;;;;6189031;23;20032;-90
2021/05/30 06:32:03;;;;;;;24.93;18.37;;;12.60;67.80;;;;;;6188838;23;20374;-91
2021/05/30 06:34:29;;;;;;;12.27;9.87;;;12.70;67.70;;;;;;6187159;23;20076;-91
2021/05/30 06:36:54;;;;;;;8.37;6.87;;;12.80;67.70;;;;;;6187657;23;20086;-91
2021/05/30 06:39:22;;;;;;;11.63;5.73;;;12.80;67.70;;;;;;6187662;23;20008;-91
2021/05/30 06:41:48;;;;;;;7.97;6.30;;;12.90;67.70;;;;;;6187047;23;20027;-92
2021/05/30 06:44:13;;;;;;;9.10;6.27;;;13.10;68.40;;;;;;6214313;23;20036;-91
2021/05/30 06:46:39;;;;;;;6.73;5.77;;;13.20;67.70;;;;;;6187729;23;20435;-91
2021/05/30 06:49:05;;;;;;;7.60;6.27;;;13.40;67.70;;;;;;6188500;23;20618;-90
2021/05/30 06:51:32;;;;;;;8.50;6.40;;;13.50;67.40;;;;;;6188071;23;20084;-90
2021/05/30 06:53:59;;;;;;;8.87;6.00;;;13.70;67.40;;;;;;6215864;23;20008;-90
2021/05/30 06:56:26;;;;;;;11.93;5.60;;;13.90;67.20;;;;;;6188188;23;20004;-91
2021/05/30 06:58:52;;;;;;;8.33;5.90;;;14.10;66.90;;;;;;6188239;23;20008;-91
2021/05/30 07:01:19;;;;;;;8.43;4.83;;;14.30;66.60;;;;;;6213820;23;20120;-90
2021/05/30 07:03:46;;;;;;;6.60;5.33;;;14.50;66.40;;;;;;6213434;23;20011;-89
2021/05/30 07:06:11;;;;;;;7.17;5.73;;;14.70;66.10;;;;;;6187820;23;20054;-90
2021/05/30 07:08:37;;;;;;;6.90;4.70;;;14.90;65.90;;;;;;6213462;23;20111;-90
2021/05/30 07:11:03;;;;;;;8.23;5.10;;;15.00;65.40;;;;;;6189461;23;20005;-91
2021/05/30 07:13:29;;;;;;;7.20;4.97;;;15.20;64.80;;;;;;6188137;23;20000;-89
2021/05/30 07:15:55;;;;;;;5.37;4.10;;;15.40;64.20;;;;;;6188784;23;20031;-88
2021/05/30 07:18:22;;;;;;;11.20;4.43;;;15.50;63.70;;;;;;6188809;23;20013;-91
2021/05/30 07:20:49;;;;;;;6.68;3.70;;;15.70;63.10;;;;;;6191471;23;20012;-91
2021/05/30 07:23:15;;;;;;;6.00;3.63;;;15.80;62.60;;;;;;6188275;23;20032;-91
2021/05/30 07:25:42;;;;;;;4.82;4.32;;;16.00;62.30;;;;;;6188350;23;20019;-91
2021/05/30 07:28:08;;;;;;;4.53;3.60;;;16.10;62.00;;;;;;6187088;23;20036;-90
2021/05/30 07:30:35;;;;;;;5.15;3.75;;;16.30;61.20;;;;;;6187221;23;20035;-91
2021/05/30 07:33:03;;;;;;;5.45;3.80;;;16.40;60.80;;;;;;6190804;23;20000;-92
2021/05/30 07:35:31;;;;;;;7.05;4.07;;;16.40;60.60;;;;;;6190184;23;20418;-91
2021/05/30 07:37:57;;;;;;;8.05;4.15;;;16.50;60.20;;;;;;6216123;23;20461;-91
2021/05/30 07:40:23;;;;;;;5.88;4.07;;;16.50;59.80;;;;;;6189407;23;20013;-91
2021/05/30 07:42:49;;;;;;;5.53;3.78;;;16.60;59.90;;;;;;6191798;23;20060;-90
2021/05/30 07:45:17;;;;;;;5.43;4.05;;;16.80;59.60;;;;;;6191095;23;20531;-90
2021/05/30 07:47:43;;;;;;;5.55;4.00;;;16.90;59.20;;;;;;6190961;23;20435;-90
2021/05/30 07:50:10;;;;;;;5.13;3.92;;;17.10;58.70;;;;;;6191311;23;20004;-90
2021/05/30 07:52:35;;;;;;;3.50;3.20;;;17.00;58.20;;;;;;6192571;23;19997;-91
2021/05/30 07:55:03;;;;;;;7.43;3.22;;;16.90;58.10;;;;;;6204103;23;20000;-90
2021/05/30 07:57:28;;;;;;;5.20;3.70;;;17.20;58.00;;;;;;6203741;23;20012;-89
2021/05/30 07:59:54;;;;;;;3.92;3.10;;;17.30;57.30;;;;;;6194279;23;20011;-91
2021/05/30 08:02:20;;;;;;;5.22;3.83;;;17.30;56.80;;;;;;6222612;23;20028;-90
2021/05/30 08:04:45;;;;;;;4.28;3.40;;;17.20;56.40;;;;;;6195276;23;20013;-91
2021/05/30 08:07:11;;;;;;;7.05;4.55;;;17.00;56.20;;;;;;6222814;23;20007;-90
2021/05/30 08:09:37;;;;;;;5.18;3.65;;;16.90;56.20;;;;;;6191877;23;20402;-90
2021/05/30 08:12:04;;;;;;;5.25;3.65;;;16.80;56.20;;;;;;6217480;23;20047;-91
2021/05/30 08:14:30;;;;;;;4.22;3.47;;;16.70;56.00;;;;;;6191813;23;20008;-91
2021/05/30 08:16:57;;;;;;;5.45;3.63;;;16.70;55.90;;;;;;6191090;23;20036;-91
2021/05/30 08:19:23;;;;;;;6.28;4.07;;;16.70;56.10;;;;;;6191875;23;20020;-92
2021/05/30 08:21:49;;;;;;;6.07;3.97;;;16.70;56.10;;;;;;6217521;23;19997;-90
2021/05/30 08:24:16;;;;;;;4.93;3.92;;;16.60;56.50;;;;;;6216988;23;19997;-91
2021/05/30 08:26:41;;;;;;;6.07;4.32;;;16.60;55.60;;;;;;6189876;23;20005;-91
2021/05/30 08:29:07;;;;;;;5.03;3.80;;;16.60;55.50;;;;;;6217505;23;20380;-90
2021/05/30 08:31:33;;;;;;;4.68;3.97;;;16.50;55.40;;;;;;6190483;23;20714;-90
2021/05/30 08:33:59;;;;;;;6.88;3.53;;;16.50;55.40;;;;;;6218005;23;20064;-91
2021/05/30 08:36:26;;;;;;;5.20;4.28;;;16.60;55.30;;;;;;6190363;23;20083;-91
2021/05/30 08:38:52;;;;;;;7.70;4.20;;;16.60;55.20;;;;;;6190280;23;20427;-91
2021/05/30 08:41:19;;;;;;;6.75;4.57;;;16.60;54.90;;;;;;6191902;23;20042;-91
2021/05/30 08:43:45;;;;;;;4.80;4.13;;;16.50;54.80;;;;;;6190443;23;20067;-91
2021/05/30 08:46:11;;;;;;;11.82;4.95;;;16.50;55.00;;;;;;6185531;23;20447;-90
2021/05/30 08:48:37;;;;;;;5.25;3.85;;;16.50;55.10;;;;;;6185482;23;20465;-91
2021/05/30 08:51:04;;;;;;;6.95;3.83;;;16.70;55.00;;;;;;6186802;23;20016;-90
2021/05/30 08:53:35;;;;;;;5.15;3.97;;;16.90;55.10;;;;;;6185669;23;20005;-90
2021/05/30 08:56:01;;;;;;;4.43;3.40;;;17.20;54.80;;;;;;6186813;23;20432;-91
2021/05/30 08:58:34;;;;;;;4.47;3.00;;;17.50;54.10;;;;;;6185328;23;20001;-91
2021/05/30 09:01:08;;;;;;;4.85;3.33;;;17.70;53.80;;;;;;6184647;23;20068;-90
2021/05/30 09:03:57;;;;;;;4.03;3.00;;;18.00;53.10;;;;;;6185287;23;20071;-90
2021/05/30 09:06:23;;;;;;;4.45;3.25;;;18.20;52.40;;;;;;6186089;23;20005;-90
2021/05/30 09:08:51;;;;;;;4.25;3.22;;;18.40;52.30;;;;;;6185340;23;20088;-91
2021/05/30 09:11:35;;;;;;;3.90;3.30;;;18.50;51.30;;;;;;6188433;23;19997;-90
2021/05/30 09:14:04;;;;;;;3.58;2.80;;;18.40;50.80;;;;;;6184727;23;20001;-86
2021/05/30 09:16:52;;;;;;;7.00;2.95;;;18.30;50.70;;;;;;6184789;23;20009;-89
2021/05/30 09:19:30;;;;;;;2.63;2.30;;;18.20;50.20;;;;;;6184962;23;20040;-89
2021/05/30 09:22:16;;;;;;;3.83;2.30;;;18.10;50.20;;;;;;6185236;23;20431;-89
2021/05/30 09:25:13;;;;;;;5.55;3.08;;;18.10;49.90;;;;;;6185430;23;20009;-89
2021/05/30 09:27:51;;;;;;;4.05;2.20;;;18.20;49.20;;;;;;6182412;23;20013;-87
2021/05/30 09:30:46;;;;;;;2.85;2.25;;;18.30;48.70;;;;;;6182074;23;20012;-87
2021/05/30 09:33:22;;;;;;;3.38;2.20;;;18.50;48.90;;;;;;6179270;23;20009;-89
2021/05/30 09:35:56;;;;;;;3.35;2.13;;;18.70;48.50;;;;;;6184776;23;20755;-90
2021/05/30 09:38:32;;;;;;;2.95;1.92;;;18.90;47.70;;;;;;6183475;23;20036;-89
2021/05/30 09:41:14;;;;;;;3.80;1.75;;;18.90;46.90;;;;;;6184452;23;20005;-89
2021/05/30 09:43:47;;;;;;;2.33;1.75;;;18.70;46.20;;;;;;6185782;23;20035;-88
2021/05/30 09:46:15;;;;;;;3.75;2.00;;;18.50;46.40;;;;;;6212289;23;20016;-89
2021/05/30 09:48:50;;;;;;;4.22;1.48;;;18.30;46.30;;;;;;6189535;23;20005;-88
2021/05/30 09:51:39;;;;;;;4.28;1.98;;;18.30;46.50;;;;;;6191009;23;20012;-89
2021/05/30 09:54:13;;;;;;;3.05;2.05;;;18.20;46.10;;;;;;6190184;23;20439;-89
2021/05/30 09:56:46;;;;;;;3.03;1.65;;;18.20;45.70;;;;;;6189724;23;20001;-90
2021/05/30 09:59:15;;;;;;;;;;;18.40;46.10;;;;;;6191152;23;20028;-90
2021/05/30 10:01:49;;;;;;;4.10;1.60;;;18.70;45.90;;;;;;6189492;23;19922;-87
2021/05/30 10:04:15;;;;;;;;;;;18.80;44.50;;;;;;6192073;23;20091;-90
2021/05/30 10:06:42;;;;;;;2.22;1.25;;;18.90;44.90;;;;;;6189371;23;19904;-89
2021/05/30 10:09:09;;;;;;;2.78;1.83;;;18.90;44.10;;;;;;6189039;23;20036;-88
2021/05/30 10:11:37;;;;;;;2.50;1.73;;;19.00;43.80;;;;;;6189084;23;20028;-89
2021/05/30 10:14:04;;;;;;;2.78;1.90;;;19.20;43.50;;;;;;6216075;23;20007;-88
2021/05/30 10:16:31;;;;;;;3.03;1.60;;;19.30;43.00;;;;;;6189921;23;20028;-89
2021/05/30 10:19:02;;;;;;;1.50;1.40;;;19.40;42.70;;;;;;6188771;23;20008;-89
2021/05/30 10:21:29;;;;;;;2.90;1.55;;;19.50;42.30;;;;;;6190604;23;20486;-90
2021/05/30 10:23:57;;;;;;;3.22;2.00;;;19.70;42.50;;;;;;6189266;23;20004;-89
2021/05/30 10:26:24;;;;;;;3.92;1.80;;;19.80;41.70;;;;;;6189535;23;20013;-89
2021/05/30 10:28:52;;;;;;;2.63;1.63;;;19.80;41.10;;;;;;6215216;23;20005;-89
2021/05/30 10:31:24;;;;;;;3.42;1.85;;;19.80;41.10;;;;;;6190184;23;20016;-90
2021/05/30 10:34:22;;;;;;;2.92;1.60;;;19.90;40.40;;;;;;6189293;23;20028;-89
2021/05/30 10:37:02;;;;;;;2.70;1.80;;;19.80;39.90;;;;;;6191110;23;20016;-89
2021/05/30 10:39:30;;;;;;;2.15;1.58;;;19.70;39.80;;;;;;6189830;23;20303;-90
2021/05/30 10:42:27;;;;;;;2.42;1.40;;;19.80;39.90;;;;;;6189413;23;20051;-88
2021/05/30 10:45:01;;;;;;;3.47;1.90;;;20.00;39.70;;;;;;6216140;23;20031;-90
2021/05/30 10:47:42;;;;;;;1.80;1.50;;;20.30;40.00;;;;;;6216287;23;20080;-90
2021/05/30 10:50:09;;;;;;;1.95;1.10;;;20.50;39.30;;;;;;6189434;23;20005;-90
2021/05/30 10:52:37;;;;;;;2.15;1.70;;;20.40;39.20;;;;;;6189624;23;20008;-90
2021/05/30 10:55:18;;;;;;;2.05;1.42;;;20.20;39.10;;;;;;6189816;23;20007;-89
2021/05/30 10:57:49;;;;;;;1.67;1.17;;;20.10;38.90;;;;;;6188090;23;20013;-89
2021/05/30 11:00:20;;;;;;;1.77;1.30;;;20.00;38.60;;;;;;6215953;23;20005;-90
2021/05/30 11:03:12;;;;;;;2.47;1.60;;;20.00;38.20;;;;;;6190155;23;20008;-89
2021/05/30 11:05:47;;;;;;;2.72;1.45;;;20.20;38.80;;;;;;6190160;23;20009;-89
2021/05/30 11:08:34;;;;;;;1.80;1.23;;;20.30;38.70;;;;;;6189621;23;20012;-87
2021/05/30 11:11:18;;;;;;;4.07;1.60;;;20.60;38.70;;;;;;6189937;23;20031;-87
2021/05/30 11:13:51;;;;;;;6.05;1.88;;;20.80;38.00;;;;;;6215555;23;19996;-88
2021/05/30 11:16:24;;;;;;;1.98;1.40;;;20.90;37.60;;;;;;6190270;23;20051;-89
2021/05/30 11:19:01;;;;;;;2.25;1.50;;;21.00;37.20;;;;;;6217552;23;20008;-87
2021/05/30 11:21:42;;;;;;;2.25;1.15;;;21.10;36.40;;;;;;6217692;23;20029;-87
2021/05/30 11:24:16;;;;;;;3.72;1.75;;;21.10;36.20;;;;;;6192024;23;20010;-89
2021/05/30 11:26:58;;;;;;;1.95;1.65;;;21.10;36.20;;;;;;6191477;23;20086;-90
2021/05/30 11:29:24;;;;;;;3.25;1.45;;;21.40;36.60;;;;;;6191614;23;20031;-90
2021/05/30 11:31:51;;;;;;;2.60;1.48;;;21.50;36.00;;;;;;6189471;23;20001;-89
2021/05/30 11:34:18;;;;;;;8.30;1.90;;;21.50;35.80;;;;;;6191049;23;20004;-89
2021/05/30 11:36:45;;;;;;;1.73;1.30;;;21.50;35.50;;;;;;6191175;23;20453;-90
2021/05/30 11:39:12;;;;;;;3.75;2.10;;;21.40;35.00;;;;;;6190405;23;20007;-89
2021/05/30 11:41:42;;;;;;;3.40;1.80;;;21.60;34.70;;;;;;6191345;23;20338;-86
2021/05/30 11:44:20;;;;;;;5.53;2.10;;;21.60;34.90;;;;;;6190360;23;20005;-87
2021/05/30 11:46:57;;;;;;;3.28;1.65;;;21.60;33.90;;;;;;6189771;23;20009;-90
2021/05/30 11:49:28;;;;;;;5.28;1.60;;;21.60;33.90;;;;;;6191144;23;20106;-90
2021/05/30 11:52:08;;;;;;;2.90;1.38;;;21.60;34.90;;;;;;6190995;23;20068;-90
2021/05/30 11:54:47;;;;;;;2.38;1.45;;;21.80;34.20;;;;;;6191035;23;20004;-90
2021/05/30 11:57:12;;;;;;;1.88;1.55;;;21.80;33.30;;;;;;6217802;23;20079;-90
2021/05/30 11:59:41;;;;;;;3.88;1.60;;;21.90;33.90;;;;;;6191143;23;20029;-90
2021/05/30 12:02:09;;;;;;;2.22;1.67;;;21.90;33.70;;;;;;6217416;23;20000;-89
2021/05/30 12:04:37;;;;;;;2.50;1.50;;;21.90;33.00;;;;;;6191286;23;20058;-90
2021/05/30 12:07:09;;;;;;;3.17;1.90;;;21.60;33.20;;;;;;6190158;23;20017;-90
2021/05/30 12:09:49;;;;;;;3.30;1.60;;;21.60;33.60;;;;;;6190986;23;20092;-90
2021/05/30 12:12:45;;;;;;;3.60;1.42;;;21.70;33.70;;;;;;6190285;23;20004;-89
2021/05/30 12:15:12;;;;;;;5.68;1.88;;;21.70;33.20;;;;;;6188631;23;20079;-89
2021/05/30 12:17:56;;;;;;;2.95;1.60;;;21.80;33.40;;;;;;6191187;23;20017;-89
2021/05/30 12:20:31;;;;;;;2.40;1.33;;;21.80;33.00;;;;;;6191620;23;20074;-90
2021/05/30 12:23:14;;;;;;;6.95;1.77;;;21.70;33.20;;;;;;6191204;23;20027;-89
2021/05/30 12:26:02;;;;;;;3.15;1.92;;;21.80;33.00;;;;;;6191276;23;20005;-90
2021/05/30 12:28:36;;;;;;;13.07;1.88;;;21.80;32.80;;;;;;6190953;23;20105;-90
2021/05/30 12:31:15;;;;;;;7.15;1.80;;;21.80;32.70;;;;;;6191145;23;20005;-90
2021/05/30 12:34:01;;;;;;;8.15;1.77;;;21.90;32.90;;;;;;6190645;23;20423;-90
2021/05/30 12:36:30;;;;;;;2.67;1.73;;;22.00;32.70;;;;;;6190737;23;20005;-90
2021/05/30 12:39:15;;;;;;;1.92;1.50;;;22.00;32.70;;;;;;6190943;23;20035;-90
2021/05/30 12:41:46;;;;;;;2.92;1.40;;;22.00;32.30;;;;;;6190446;23;20458;-90
2021/05/30 12:44:15;;;;;;;2.58;1.80;;;21.90;31.70;;;;;;6190983;23;20455;-90
2021/05/30 12:47:00;;;;;;;3.88;1.88;;;21.90;32.20;;;;;;6192190;23;20012;-89
2021/05/30 12:49:27;;;;;;;2.50;1.60;;;22.00;32.00;;;;;;6193679;23;20009;-90
2021/05/30 12:51:57;;;;;;;2.22;1.48;;;22.00;32.10;;;;;;6194532;23;20001;-90
2021/05/30 12:54:23;;;;;;;2.20;1.67;;;21.90;31.60;;;;;;6193949;23;20008;-90
2021/05/30 12:56:49;;;;;;;2.00;1.55;;;21.90;31.90;;;;;;6196555;23;20013;-90